Time;durP1;ratioP1;P1;durP2;ratioP2;P2;SDS_P1;SDS_P2;PMS_P1;PMS_P2;Temp;Humidity;BMP_temperature;BMP_pressure;BME280_temperature;BME280_humidity;BME280_pressure;Samples;Min_cycle;Max_cycle;Signal;HPM_P1;HPM_P2
2021/05/19 00:00:55;;;;;;;44.13;24.10;;;;;;;;;;5049316;28;20009;-64
2021/05/19 00:03:20;;;;;;;43.83;24.63;;;;;;;;;;5049766;28;20017;-64
2021/05/19 00:05:46;;;;;;;43.90;25.02;;;;;;;;;;5049934;28;20465;-63
2021/05/19 00:08:11;;;;;;;45.08;26.08;;;;;;;;;;5049434;28;20029;-64
2021/05/19 00:10:37;;;;;;;49.60;24.90;;;;;;;;;;5049403;28;20017;-64
2021/05/19 00:13:02;;;;;;;43.15;23.67;;;;;;;;;;5049765;28;20461;-65
2021/05/19 00:15:27;;;;;;;44.33;23.13;;;;;;;;;;5049157;28;20481;-64
2021/05/19 00:17:52;;;;;;;41.67;24.50;;;;;;;;;;5049804;28;20025;-64
2021/05/19 00:20:18;;;;;;;54.95;25.13;;;;;;;;;;5049330;28;20393;-64
2021/05/19 00:22:44;;;;;;;41.17;23.60;;;;;;;;;;5041733;28;20021;-64
2021/05/19 00:25:10;;;;;;;44.70;24.10;;;;;;;;;;5049522;28;20036;-64
2021/05/19 00:27:35;;;;;;;46.63;25.15;;;;;;;;;;5048572;28;20024;-63
2021/05/19 00:30:02;;;;;;;42.65;24.52;;;;;;;;;;5048504;28;20520;-64
2021/05/19 00:32:27;;;;;;;51.22;24.23;;;;;;;;;;5049191;28;20025;-64
2021/05/19 00:34:52;;;;;;;43.80;24.67;;;;;;;;;;5049248;28;20035;-63
2021/05/19 00:37:17;;;;;;;40.65;24.35;;;;;;;;;;5048753;28;20481;-63
2021/05/19 00:39:43;;;;;;;46.35;24.38;;;;;;;;;;5049386;28;20290;-63
2021/05/19 00:42:10;;;;;;;47.80;25.90;;;;;;;;;;5049159;28;20366;-63
2021/05/19 00:44:35;;;;;;;48.33;25.02;;;;;;;;;;5049502;28;20037;-63
2021/05/19 00:47:00;;;;;;;44.10;23.45;;;;;;;;;;5052813;28;20021;-63
2021/05/19 00:49:25;;;;;;;42.30;23.97;;;;;;;;;;5052845;28;20017;-65
2021/05/19 00:51:50;;;;;;;45.45;24.42;;;;;;;;;;5052875;28;20271;-63
2021/05/19 00:54:15;;;;;;;44.05;24.52;;;;;;;;;;5052915;28;20056;-66
2021/05/19 00:56:41;;;;;;;45.53;25.55;;;;;;;;;;5052487;28;20139;-64
2021/05/19 00:59:06;;;;;;;48.63;24.25;;;;;;;;;;5053064;28;20450;-63
2021/05/19 01:01:35;;;;;;;41.78;23.80;;;;;;;;;;5052301;28;20032;-64
2021/05/19 01:04:01;;;;;;;49.33;23.83;;;;;;;;;;5052594;28;20018;-64
2021/05/19 01:06:35;;;;;;;41.75;23.13;;;;;;;;;;5051618;28;20071;-65
2021/05/19 01:11:44;;;;;;;37.97;22.17;;;;;;;;;;5052936;28;20039;-63
2021/05/19 01:14:09;;;;;;;43.72;22.73;;;;;;;;;;5052476;28;20024;-63
2021/05/19 01:16:34;;;;;;;40.80;22.70;;;;;;;;;;5052320;28;20539;-65
2021/05/19 01:18:59;;;;;;;47.67;24.58;;;;;;;;;;5052493;28;20282;-64
2021/05/19 01:21:25;;;;;;;49.72;24.38;;;;;;;;;;5051995;28;20415;-64
2021/05/19 01:23:52;;;;;;;45.38;24.70;;;;;;;;;;5052343;28;20059;-66
2021/05/19 01:26:17;;;;;;;45.67;25.88;;;;;;;;;;5052458;28;20374;-64
2021/05/19 01:28:42;;;;;;;50.67;25.25;;;;;;;;;;5052621;28;20028;-63
2021/05/19 01:31:09;;;;;;;48.80;25.95;;;;;;;;;;5052157;28;20021;-64
2021/05/19 01:33:35;;;;;;;49.60;24.85;;;;;;;;;;5051883;28;20481;-64
2021/05/19 01:36:00;;;;;;;52.78;25.42;;;;;;;;;;5051781;28;20167;-63
2021/05/19 01:38:25;;;;;;;53.90;26.20;;;;;;;;;;5051991;28;20376;-63
2021/05/19 01:40:50;;;;;;;47.95;24.40;;;;;;;;;;5051719;28;20295;-63
2021/05/19 01:43:15;;;;;;;44.58;22.63;;;;;;;;;;5052169;28;20025;-64
2021/05/19 01:45:41;;;;;;;49.53;24.23;;;;;;;;;;5051320;28;20071;-63
2021/05/19 01:48:09;;;;;;;44.15;23.23;;;;;;;;;;5051629;28;20350;-64
2021/05/19 01:50:34;;;;;;;44.90;22.55;;;;;;;;;;5051364;28;20025;-64
2021/05/19 01:53:01;;;;;;;41.03;21.73;;;;;;;;;;5051525;28;20048;-64
2021/05/19 01:55:26;;;;;;;52.95;24.80;;;;;;;;;;5051676;28;20028;-63
2021/05/19 01:57:52;;;;;;;40.50;21.75;;;;;;;;;;5050691;28;20378;-64
2021/05/19 02:00:19;;;;;;;37.55;21.45;;;;;;;;;;5050851;28;20023;-63
2021/05/19 02:02:44;;;;;;;39.67;21.58;;;;;;;;;;5051295;28;20032;-64
2021/05/19 02:05:10;;;;;;;38.25;22.05;;;;;;;;;;5051551;28;20557;-64
2021/05/19 02:07:36;;;;;;;43.17;22.83;;;;;;;;;;5051453;28;20124;-64
2021/05/19 02:10:03;;;;;;;41.83;23.80;;;;;;;;;;5051725;28;20458;-63
2021/05/19 02:12:29;;;;;;;44.60;21.70;;;;;;;;;;5051521;28;20032;-64
2021/05/19 02:14:54;;;;;;;47.13;23.80;;;;;;;;;;5051034;28;20096;-63
2021/05/19 02:17:20;;;;;;;42.73;22.67;;;;;;;;;;5050973;28;20100;-63
2021/05/19 02:19:45;;;;;;;43.00;21.92;;;;;;;;;;5051573;28;20693;-65
2021/05/19 02:22:10;;;;;;;44.33;23.60;;;;;;;;;;5051249;28;20029;-63
2021/05/19 02:24:35;;;;;;;53.00;20.20;;;;;;;;;;5051317;28;20251;-64
2021/05/19 02:27:00;;;;;;;46.50;23.30;;;;;;;;;;5050350;28;20276;-63
2021/05/19 02:29:26;;;;;;;45.55;23.70;;;;;;;;;;5050235;28;20020;-63
2021/05/19 02:31:51;;;;;;;42.60;22.00;;;;;;;;;;5050846;28;20029;-64
2021/05/19 02:34:16;;;;;;;46.47;22.40;;;;;;;;;;5051046;28;20082;-64
2021/05/19 02:36:41;;;;;;;36.78;19.98;;;;;;;;;;5033162;28;20024;-63
2021/05/19 02:39:08;;;;;;;37.08;21.58;;;;;;;;;;5051133;28;20025;-63
2021/05/19 02:41:33;;;;;;;43.67;22.50;;;;;;;;;;5051069;28;20056;-63
2021/05/19 02:43:58;;;;;;;45.22;22.50;;;;;;;;;;5050706;28;20064;-64
2021/05/19 02:46:23;;;;;;;36.30;20.17;;;;;;;;;;5050294;28;20483;-64
2021/05/19 02:48:49;;;;;;;41.60;23.77;;;;;;;;;;5055197;28;20020;-64
2021/05/19 02:51:17;;;;;;;46.72;23.58;;;;;;;;;;5039814;28;20013;-64
2021/05/19 02:53:42;;;;;;;40.20;23.20;;;;;;;;;;5043112;28;20039;-64
2021/05/19 02:56:07;;;;;;;42.47;23.65;;;;;;;;;;5050183;28;20103;-63
2021/05/19 02:58:32;;;;;;;48.42;25.08;;;;;;;;;;5052826;28;20419;-64
2021/05/19 03:00:58;;;;;;;49.05;25.48;;;;;;;;;;5056935;28;20024;-63
2021/05/19 03:03:23;;;;;;;47.60;24.73;;;;;;;;;;5050538;28;20028;-63
2021/05/19 03:05:48;;;;;;;51.03;24.50;;;;;;;;;;5045446;28;20834;-64
2021/05/19 03:08:14;;;;;;;45.53;25.05;;;;;;;;;;5039472;28;20529;-64
2021/05/19 03:10:39;;;;;;;47.70;26.23;;;;;;;;;;5047866;28;20441;-64
2021/05/19 03:13:04;;;;;;;54.60;26.25;;;;;;;;;;5048326;28;20107;-63
2021/05/19 03:15:30;;;;;;;50.00;27.85;;;;;;;;;;5048247;28;20393;-64
2021/05/19 03:17:56;;;;;;;55.08;28.08;;;;;;;;;;5047993;28;20413;-64
2021/05/19 03:20:21;;;;;;;49.60;24.50;;;;;;;;;;5047750;28;20481;-64
2021/05/19 03:22:46;;;;;;;46.15;25.20;;;;;;;;;;5047031;28;20112;-64
2021/05/19 03:25:11;;;;;;;51.50;25.03;;;;;;;;;;5048566;28;20016;-64
2021/05/19 03:27:37;;;;;;;49.90;26.35;;;;;;;;;;5047795;28;20271;-64
2021/05/19 03:30:04;;;;;;;49.40;25.98;;;;;;;;;;5047429;28;20021;-64
2021/05/19 03:32:30;;;;;;;50.88;24.85;;;;;;;;;;5047998;28;20028;-64
2021/05/19 03:34:55;;;;;;;48.22;23.58;;;;;;;;;;5047247;28;20562;-64
2021/05/19 03:37:20;;;;;;;47.17;23.17;;;;;;;;;;5046163;28;20052;-63
2021/05/19 03:39:45;;;;;;;44.17;24.43;;;;;;;;;;5055497;28;20276;-64
2021/05/19 03:42:10;;;;;;;42.10;23.87;;;;;;;;;;5050002;28;20278;-64
2021/05/19 03:44:35;;;;;;;49.83;23.83;;;;;;;;;;5045493;28;20355;-64
2021/05/19 03:47:01;;;;;;;43.60;24.40;;;;;;;;;;5047556;28;20063;-63
2021/05/19 03:49:32;;;;;;;48.35;24.88;;;;;;;;;;5047967;28;20018;-64
2021/05/19 03:51:57;;;;;;;49.30;26.27;;;;;;;;;;5047751;28;20543;-63
2021/05/19 03:54:22;;;;;;;50.58;25.85;;;;;;;;;;5048101;28;20060;-64
2021/05/19 03:56:48;;;;;;;53.65;25.48;;;;;;;;;;5047579;28;20024;-64
2021/05/19 03:59:14;;;;;;;45.03;24.90;;;;;;;;;;5048068;28;20377;-65
2021/05/19 04:01:39;;;;;;;50.88;26.42;;;;;;;;;;5050861;28;20037;-64
2021/05/19 04:04:04;;;;;;;53.27;25.90;;;;;;;;;;5049223;28;20025;-65
2021/05/19 04:06:29;;;;;;;48.53;26.45;;;;;;;;;;5049761;28;20708;-63
2021/05/19 04:08:57;;;;;;;51.07;27.37;;;;;;;;;;5049714;28;20021;-64
2021/05/19 04:11:23;;;;;;;50.78;26.63;;;;;;;;;;5047342;28;20270;-64
2021/05/19 04:13:48;;;;;;;46.28;25.45;;;;;;;;;;5046513;28;20115;-64
2021/05/19 04:16:14;;;;;;;49.28;26.58;;;;;;;;;;5047588;28;20021;-63
2021/05/19 04:18:39;;;;;;;47.83;26.50;;;;;;;;;;5047480;28;20040;-65
2021/05/19 04:21:05;;;;;;;52.03;26.33;;;;;;;;;;5050329;28;20132;-64
2021/05/19 04:23:30;;;;;;;48.63;26.10;;;;;;;;;;5051044;28;20283;-63
2021/05/19 04:25:56;;;;;;;46.95;26.75;;;;;;;;;;5052156;28;20363;-64
2021/05/19 04:28:21;;;;;;;51.92;25.15;;;;;;;;;;5052975;28;20428;-62
2021/05/19 04:30:47;;;;;;;46.33;23.60;;;;;;;;;;5056927;28;20020;-64
2021/05/19 04:33:14;;;;;;;49.83;26.50;;;;;;;;;;5065218;28;20044;-63
2021/05/19 04:35:39;;;;;;;48.25;25.60;;;;;;;;;;5053192;28;20126;-64
2021/05/19 04:38:04;;;;;;;44.57;24.27;;;;;;;;;;5053146;28;20366;-63
2021/05/19 04:40:30;;;;;;;41.28;23.80;;;;;;;;;;5052828;28;20659;-65
2021/05/19 04:42:55;;;;;;;47.35;24.90;;;;;;;;;;5052601;28;20029;-63
2021/05/19 04:45:21;;;;;;;44.15;24.70;;;;;;;;;;5053157;28;20017;-64
2021/05/19 04:47:46;;;;;;;45.80;26.45;;;;;;;;;;5052568;28;20442;-64
2021/05/19 04:50:11;;;;;;;49.03;27.08;;;;;;;;;;5053261;28;20017;-63
2021/05/19 04:52:37;;;;;;;42.08;25.30;;;;;;;;;;5052814;28;20096;-63
2021/05/19 04:55:05;;;;;;;47.70;26.58;;;;;;;;;;5052765;28;20029;-65
2021/05/19 04:57:30;;;;;;;50.53;25.77;;;;;;;;;;5051969;28;20021;-65
2021/05/19 04:59:55;;;;;;;41.00;25.42;;;;;;;;;;5052143;28;20036;-63
2021/05/19 05:02:21;;;;;;;41.00;24.50;;;;;;;;;;5052624;28;20047;-64
2021/05/19 05:04:46;;;;;;;43.17;24.83;;;;;;;;;;5051299;28;20024;-64
2021/05/19 05:07:11;;;;;;;43.83;22.70;;;;;;;;;;5051878;28;20017;-64
2021/05/19 05:09:36;;;;;;;40.58;23.23;;;;;;;;;;5052602;28;20346;-63
2021/05/19 05:12:01;;;;;;;45.35;24.58;;;;;;;;;;5046640;28;20029;-64
2021/05/19 05:14:27;;;;;;;39.17;25.45;;;;;;;;;;5052624;28;20075;-65
2021/05/19 05:16:52;;;;;;;38.03;21.90;;;;;;;;;;5051946;28;20400;-64
2021/05/19 05:19:17;;;;;;;35.42;21.52;;;;;;;;;;5052047;28;20032;-63
2021/05/19 05:21:43;;;;;;;37.65;21.85;;;;;;;;;;5052128;28;20051;-63
2021/05/19 05:24:08;;;;;;;42.45;24.70;;;;;;;;;;5051417;28;20024;-63
2021/05/19 05:26:33;;;;;;;42.90;23.90;;;;;;;;;;5047614;28;20013;-65
2021/05/19 05:28:58;;;;;;;42.35;24.33;;;;;;;;;;5050093;28;20029;-63
2021/05/19 05:31:23;;;;;;;35.75;22.73;;;;;;;;;;5055930;28;20032;-64
2021/05/19 05:33:49;;;;;;;39.63;21.15;;;;;;;;;;5048990;28;20017;-63
2021/05/19 05:36:14;;;;;;;36.00;21.67;;;;;;;;;;5048937;28;20128;-63
2021/05/19 05:38:39;;;;;;;33.58;21.63;;;;;;;;;;5049655;28;20374;-64
2021/05/19 05:41:04;;;;;;;32.05;19.02;;;;;;;;;;5049445;28;20029;-64
2021/05/19 05:43:30;;;;;;;32.85;19.27;;;;;;;;;;5048989;28;20029;-64
2021/05/19 05:45:55;;;;;;;34.37;20.07;;;;;;;;;;5050808;28;20505;-63
2021/05/19 05:48:20;;;;;;;34.55;18.95;;;;;;;;;;5051339;28;20294;-64
2021/05/19 05:50:45;;;;;;;29.92;19.45;;;;;;;;;;5048309;28;20047;-63
2021/05/19 05:53:10;;;;;;;29.00;18.63;;;;;;;;;;5051114;28;20033;-64
2021/05/19 05:55:36;;;;;;;32.87;19.70;;;;;;;;;;5051973;28;20507;-63
2021/05/19 05:58:01;;;;;;;35.08;21.23;;;;;;;;;;5051251;28;20271;-65
2021/05/19 06:00:26;;;;;;;32.40;17.83;;;;;;;;;;5051140;28;20024;-64
2021/05/19 06:02:51;;;;;;;28.50;17.52;;;;;;;;;;5051772;28;20291;-64
2021/05/19 06:05:16;;;;;;;32.15;17.85;;;;;;;;;;5042745;22;20041;-63
2021/05/19 06:07:42;;;;;;;26.70;16.00;;;;;;;;;;5011257;28;20033;-63
2021/05/19 06:10:08;;;;;;;26.92;15.63;;;;;;;;;;5011796;28;20013;-63
2021/05/19 06:12:33;;;;;;;28.20;15.98;;;;;;;;;;5011555;28;20084;-63
2021/05/19 06:14:58;;;;;;;27.38;14.95;;;;;;;;;;5012011;28;20026;-63
2021/05/19 06:17:24;;;;;;;33.28;16.90;;;;;;;;;;5010304;28;20108;-64
2021/05/19 06:19:50;;;;;;;27.70;16.20;;;;;;;;;;5020390;28;20516;-64
2021/05/19 06:22:15;;;;;;;24.80;13.63;;;;;;;;;;5012424;28;20026;-63
2021/05/19 06:24:41;;;;;;;23.88;9.82;;;;;;;;;;5011336;28;20371;-64
2021/05/19 06:27:06;;;;;;;23.80;10.05;;;;;;;;;;5013393;28;20021;-63
2021/05/19 06:29:31;;;;;;;29.92;8.93;;;;;;;;;;5011507;28;20010;-63
2021/05/19 06:31:56;;;;;;;21.70;9.68;;;;;;;;;;5013160;28;20018;-64
2021/05/19 06:34:22;;;;;;;8.60;4.78;;;;;;;;;;5010583;28;20048;-64
2021/05/19 06:36:49;;;;;;;15.15;5.43;;;;;;;;;;5010920;28;20030;-63
2021/05/19 06:39:14;;;;;;;10.40;4.95;;;;;;;;;;5011283;28;20028;-63
2021/05/19 06:41:45;;;;;;;11.95;5.60;;;;;;;;;;5010397;28;20030;-63
2021/05/19 06:44:10;;;;;;;20.98;8.88;;;;;;;;;;5010836;28;20017;-63
2021/05/19 06:46:36;;;;;;;19.13;7.72;;;;;;;;;;5010150;28;20022;-64
2021/05/19 06:49:03;;;;;;;20.73;6.03;;;;;;;;;;4996377;28;20022;-63
2021/05/19 06:51:29;;;;;;;21.25;7.88;;;;;;;;;;5010590;28;20348;-64
2021/05/19 06:53:54;;;;;;;17.05;5.75;;;;;;;;;;5010982;28;20786;-64
2021/05/19 06:56:19;;;;;;;17.38;7.30;;;;;;;;;;5010696;28;20053;-63
2021/05/19 06:58:44;;;;;;;28.98;10.18;;;;;;;;;;5010375;28;20026;-64
2021/05/19 07:01:09;;;;;;;19.53;8.17;;;;;;;;;;5010443;28;20290;-64
2021/05/19 07:03:35;;;;;;;38.07;13.80;;;;;;;;;;5010582;28;20280;-63
2021/05/19 07:06:00;;;;;;;28.48;9.88;;;;;;;;;;5009993;28;20273;-64
2021/05/19 07:08:25;;;;;;;21.70;8.13;;;;;;;;;;5027989;28;20116;-64
2021/05/19 07:10:50;;;;;;;31.40;9.67;;;;;;;;;;5021377;28;20260;-64
2021/05/19 07:13:18;;;;;;;17.70;7.97;;;;;;;;;;5016642;28;20323;-64
2021/05/19 07:15:43;;;;;;;27.30;8.15;;;;;;;;;;5020634;28;20268;-64
2021/05/19 07:18:11;;;;;;;28.73;6.93;;;;;;;;;;5015762;28;20028;-63
2021/05/19 07:20:36;;;;;;;19.10;5.95;;;;;;;;;;5013190;28;20464;-63
2021/05/19 07:23:01;;;;;;;22.60;6.35;;;;;;;;;;5011285;28;20113;-64
2021/05/19 07:25:27;;;;;;;12.45;5.15;;;;;;;;;;5010355;28;20029;-63
2021/05/19 07:27:52;;;;;;;15.65;5.63;;;;;;;;;;5010264;28;20022;-64
2021/05/19 07:30:18;;;;;;;16.63;4.60;;;;;;;;;;5011529;28;20017;-64
2021/05/19 07:32:44;;;;;;;18.15;6.25;;;;;;;;;;5015141;28;20272;-64
2021/05/19 07:35:09;;;;;;;19.10;4.53;;;;;;;;;;5015724;28;20458;-64
2021/05/19 07:37:34;;;;;;;23.88;5.15;;;;;;;;;;5009986;28;20264;-64
2021/05/19 07:39:59;;;;;;;14.93;4.33;;;;;;;;;;5009971;28;20028;-64
2021/05/19 07:42:25;;;;;;;18.73;6.25;;;;;;;;;;5009991;28;20265;-64
2021/05/19 07:44:50;;;;;;;10.90;4.03;;;;;;;;;;5009787;28;20033;-64
2021/05/19 07:47:15;;;;;;;9.37;2.90;;;;;;;;;;5008544;28;20021;-65
2021/05/19 07:49:41;;;;;;;12.87;2.73;;;;;;;;;;5011082;28;20614;-64
2021/05/19 07:52:07;;;;;;;14.52;3.65;;;;;;;;;;5010101;28;20025;-65
2021/05/19 07:54:33;;;;;;;7.38;2.03;;;;;;;;;;5010752;28;20030;-64
2021/05/19 07:59:27;;;;;;;9.43;2.83;;;;;;;;;;5014243;28;20045;-65
2021/05/19 08:02:12;;;;;;;10.50;2.30;;;;;;;;;;5014515;28;20128;-64
2021/05/19 08:04:37;;;;;;;14.40;2.70;;;;;;;;;;5013304;28;20038;-64
2021/05/19 08:07:03;;;;;;;11.98;3.00;;;;;;;;;;5013901;28;20493;-64
2021/05/19 08:09:29;;;;;;;8.32;2.65;;;;;;;;;;5013925;28;20029;-64
2021/05/19 08:11:54;;;;;;;4.35;1.38;;;;;;;;;;5014073;28;20014;-64
2021/05/19 08:14:19;;;;;;;9.30;1.70;;;;;;;;;;5015464;28;20052;-64
2021/05/19 08:16:44;;;;;;;16.50;2.17;;;;;;;;;;5018306;28;20497;-63
2021/05/19 08:19:10;;;;;;;10.30;2.03;;;;;;;;;;5023486;28;20060;-64
2021/05/19 08:21:36;;;;;;;5.15;1.85;;;;;;;;;;5013679;28;20369;-64
2021/05/19 08:24:01;;;;;;;7.50;1.70;;;;;;;;;;5012765;28;20367;-64
2021/05/19 08:26:26;;;;;;;12.32;2.13;;;;;;;;;;5012623;28;20045;-64
2021/05/19 08:28:51;;;;;;;10.77;1.83;;;;;;;;;;5013841;28;20100;-63
2021/05/19 08:31:19;;;;;;;7.68;1.80;;;;;;;;;;5023441;28;20013;-64
2021/05/19 08:33:47;;;;;;;8.73;1.63;;;;;;;;;;5013056;28;20032;-64
2021/05/19 08:36:12;;;;;;;9.52;1.63;;;;;;;;;;5013071;28;20048;-64
2021/05/19 08:38:38;;;;;;;9.30;1.70;;;;;;;;;;5013722;28;20486;-64
2021/05/19 08:41:04;;;;;;;5.80;1.35;;;;;;;;;;5013313;28;20093;-64
2021/05/19 08:43:29;;;;;;;2.67;1.10;;;;;;;;;;5013215;28;20018;-64
2021/05/19 08:45:54;;;;;;;12.20;2.70;;;;;;;;;;5019392;28;20426;-64
2021/05/19 08:48:20;;;;;;;12.33;1.43;;;;;;;;;;5013400;28;20029;-64
2021/05/19 08:50:45;;;;;;;9.40;1.95;;;;;;;;;;5012687;28;20261;-64
2021/05/19 08:53:10;;;;;;;6.90;1.50;;;;;;;;;;5012341;28;20025;-64
2021/05/19 08:55:36;;;;;;;10.87;2.27;;;;;;;;;;5012682;28;20037;-64
2021/05/19 08:58:01;;;;;;;7.47;2.70;;;;;;;;;;5013644;28;20636;-64
2021/05/19 09:00:28;;;;;;;14.95;2.17;;;;;;;;;;5013194;28;20022;-65
2021/05/19 09:03:06;;;;;;;9.63;2.47;;;;;;;;;;5013432;28;20068;-64
2021/05/19 09:05:32;;;;;;;15.73;2.70;;;;;;;;;;4993175;28;20029;-64
2021/05/19 09:08:16;;;;;;;9.70;2.97;;;;;;;;;;5003740;28;20026;-64
2021/05/19 09:10:42;;;;;;;13.68;2.88;;;;;;;;;;5013052;28;20037;-64
2021/05/19 09:13:08;;;;;;;12.23;3.05;;;;;;;;;;5025444;28;20038;-64
2021/05/19 09:15:46;;;;;;;13.55;2.33;;;;;;;;;;5012094;28;20026;-64
2021/05/19 09:18:11;;;;;;;10.30;1.55;;;;;;;;;;5027819;28;20021;-64
2021/05/19 09:20:44;;;;;;;8.88;2.08;;;;;;;;;;5012668;28;20536;-64
2021/05/19 09:23:16;;;;;;;12.07;2.40;;;;;;;;;;5012578;28;20482;-64
2021/05/19 09:25:41;;;;;;;11.07;2.67;;;;;;;;;;5012284;28;20057;-64
2021/05/19 09:28:07;;;;;;;5.85;1.40;;;;;;;;;;5012892;28;20466;-64
2021/05/19 09:30:34;;;;;;;28.60;12.68;;;;;;;;;;5012242;28;20018;-64
2021/05/19 09:33:22;;;;;;;9.07;2.63;;;;;;;;;;5012598;28;20034;-64
2021/05/19 09:36:06;;;;;;;15.70;2.40;;;;;;;;;;5012226;28;20100;-64
2021/05/19 09:38:31;;;;;;;11.02;2.50;;;;;;;;;;5011803;28;20017;-64
2021/05/19 09:41:15;;;;;;;13.47;2.73;;;;;;;;;;5012624;28;20022;-64
2021/05/19 09:43:41;;;;;;;13.25;1.88;;;;;;;;;;5011422;28;20753;-64
2021/05/19 09:46:13;;;;;;;17.63;3.33;;;;;;;;;;5011666;28;20044;-64
2021/05/19 09:48:38;;;;;;;287.52;133.68;;;;;;;;;;5011815;28;20116;-64
2021/05/19 09:51:04;;;;;;;14.82;3.30;;;;;;;;;;5011595;28;20322;-64
2021/05/19 09:53:33;;;;;;;4.47;1.58;;;;;;;;;;5011994;28;20022;-64
2021/05/19 09:55:58;;;;;;;5.03;1.20;;;;;;;;;;5011608;28;20024;-64
2021/05/19 09:58:30;;;;;;;7.97;1.05;;;;;;;;;;5012230;28;20018;-64
2021/05/19 10:00:55;;;;;;;8.85;1.60;;;;;;;;;;5011708;28;20543;-64
2021/05/19 10:03:20;;;;;;;4.65;1.20;;;;;;;;;;5011963;28;20104;-66
2021/05/19 10:05:51;;;;;;;6.65;2.05;;;;;;;;;;5011470;28;20165;-64
2021/05/19 10:08:16;;;;;;;9.73;1.30;;;;;;;;;;5005691;28;20088;-66
2021/05/19 10:10:41;;;;;;;2.85;0.90;;;;;;;;;;5015611;28;20022;-65
2021/05/19 10:13:07;;;;;;;5.13;1.10;;;;;;;;;;5022594;28;20026;-64
2021/05/19 10:15:33;;;;;;;4.05;1.02;;;;;;;;;;5011453;28;20311;-66
2021/05/19 10:18:02;;;;;;;7.53;1.58;;;;;;;;;;5010994;28;20034;-65
2021/05/19 10:20:29;;;;;;;10.48;1.83;;;;;;;;;;5002451;28;20030;-65
2021/05/19 10:22:54;;;;;;;5.75;1.20;;;;;;;;;;5024156;28;20029;-64
2021/05/19 10:25:32;;;;;;;10.27;1.73;;;;;;;;;;5011435;28;20528;-65
2021/05/19 10:28:00;;;;;;;5.95;0.90;;;;;;;;;;5010724;28;20060;-64
2021/05/19 10:30:34;;;;;;;4.70;1.40;;;;;;;;;;5011213;28;20026;-65
2021/05/19 10:33:01;;;;;;;7.82;1.90;;;;;;;;;;4992396;28;20026;-66
2021/05/19 10:35:36;;;;;;;2.72;1.10;;;;;;;;;;5008850;28;20025;-66
2021/05/19 10:38:16;;;;;;;4.22;1.48;;;;;;;;;;5025585;28;20104;-66
2021/05/19 10:40:42;;;;;;;;;;;;;;;;;;5011791;28;20045;-66
2021/05/19 10:43:07;;;;;;;11.95;1.98;;;;;;;;;;5011508;28;19909;-65
2021/05/19 10:45:47;;;;;;;11.97;1.77;;;;;;;;;;5010666;28;20497;-65
2021/05/19 10:48:26;;;;;;;7.32;1.10;;;;;;;;;;5011024;28;20024;-64
2021/05/19 10:50:52;;;;;;;8.23;1.40;;;;;;;;;;5011702;28;20022;-63
2021/05/19 10:58:54;;;;;;;10.82;1.00;;;;;;;;;;5009119;28;20091;-64
2021/05/19 11:01:40;;;;;;;7.82;1.67;;;;;;;;;;5010923;28;20032;-65
2021/05/19 11:04:12;;;;;;;3.90;1.15;;;;;;;;;;5010370;28;20466;-64
2021/05/19 11:06:55;;;;;;;4.78;1.33;;;;;;;;;;5014351;28;20353;-64
2021/05/19 11:09:21;;;;;;;4.22;1.40;;;;;;;;;;5026463;28;20045;-64
2021/05/19 11:11:46;;;;;;;5.60;1.05;;;;;;;;;;5024996;28;20087;-65
2021/05/19 11:14:27;;;;;;;3.00;0.87;;;;;;;;;;5011342;28;20049;-62
2021/05/19 11:16:59;;;;;;;5.95;1.13;;;;;;;;;;5017827;28;20272;-66
2021/05/19 11:19:29;;;;;;;6.00;1.00;;;;;;;;;;5010993;28;20041;-64
2021/05/19 11:22:05;;;;;;;6.07;1.05;;;;;;;;;;5010166;28;20109;-64
2021/05/19 11:24:30;;;;;;;10.30;1.40;;;;;;;;;;5011787;28;20056;-64
2021/05/19 11:26:55;;;;;;;3.10;1.30;;;;;;;;;;5022248;28;20017;-64
2021/05/19 11:29:21;;;;;;;7.55;1.23;;;;;;;;;;5015687;28;20025;-65
2021/05/19 11:31:47;;;;;;;4.43;0.95;;;;;;;;;;5010785;28;20100;-63
2021/05/19 11:34:14;;;;;;;6.80;1.08;;;;;;;;;;5007136;28;20026;-64
2021/05/19 11:36:41;;;;;;;4.90;0.90;;;;;;;;;;5017034;28;20032;-65
2021/05/19 11:39:22;;;;;;;9.95;1.23;;;;;;;;;;5029906;28;20021;-64
2021/05/19 11:41:47;;;;;;;6.88;2.05;;;;;;;;;;5027881;28;20409;-64
2021/05/19 11:44:29;;;;;;;6.25;0.82;;;;;;;;;;5017235;28;20112;-64
2021/05/19 11:46:54;;;;;;;8.50;1.13;;;;;;;;;;5013493;28;20069;-64
2021/05/19 11:49:19;;;;;;;12.77;2.17;;;;;;;;;;5016504;28;20045;-65
2021/05/19 11:51:44;;;;;;;5.22;0.90;;;;;;;;;;5023457;28;20276;-64
2021/05/19 11:54:10;;;;;;;5.57;0.93;;;;;;;;;;5016238;28;20029;-64
2021/05/19 11:56:46;;;;;;;7.28;1.23;;;;;;;;;;5028270;28;20025;-66
2021/05/19 11:59:29;;;;;;;5.35;1.00;;;;;;;;;;5026054;28;20104;-64
2021/05/19 12:01:58;;;;;;;9.48;1.27;;;;;;;;;;5011297;28;20032;-63
2021/05/19 12:04:24;;;;;;;4.57;1.23;;;;;;;;;;5021541;28;20056;-65
2021/05/19 12:06:50;;;;;;;9.23;1.75;;;;;;;;;;5013946;28;20026;-64
2021/05/19 12:09:17;;;;;;;11.45;2.03;;;;;;;;;;5010309;28;20375;-66
2021/05/19 12:11:42;;;;;;;5.65;1.42;;;;;;;;;;5009794;28;20117;-65
2021/05/19 12:14:10;;;;;;;10.77;2.17;;;;;;;;;;5010355;28;20101;-66
2021/05/19 12:16:43;;;;;;;9.68;1.75;;;;;;;;;;5010040;28;20045;-66
2021/05/19 12:19:09;;;;;;;9.48;1.55;;;;;;;;;;5010078;28;20101;-66
2021/05/19 12:21:38;;;;;;;8.10;1.20;;;;;;;;;;5010298;28;20101;-65
2021/05/19 12:24:04;;;;;;;9.75;1.08;;;;;;;;;;5009924;28;20120;-65
2021/05/19 12:26:29;;;;;;;5.60;1.05;;;;;;;;;;5009358;28;20498;-65
2021/05/19 12:28:55;;;;;;;5.57;1.30;;;;;;;;;;5010058;28;20070;-66
2021/05/19 12:31:33;;;;;;;8.02;1.60;;;;;;;;;;5010119;28;20018;-65
2021/05/19 12:33:59;;;;;;;2.67;0.80;;;;;;;;;;5009014;28;20038;-65
2021/05/19 12:36:29;;;;;;;6.22;0.70;;;;;;;;;;5009607;28;20025;-65
2021/05/19 12:38:57;;;;;;;4.22;1.10;;;;;;;;;;5009356;28;20037;-64
2021/05/19 12:41:41;;;;;;;1.30;0.60;;;;;;;;;;5011415;28;20034;-65
2021/05/19 12:44:06;;;;;;;11.35;1.35;;;;;;;;;;5012965;28;20030;-66
2021/05/19 12:46:31;;;;;;;6.63;0.90;;;;;;;;;;5012863;28;20018;-66
2021/05/19 12:48:57;;;;;;;4.00;1.00;;;;;;;;;;5013748;28;20618;-66
2021/05/19 12:51:22;;;;;;;2.72;0.70;;;;;;;;;;5013530;28;20348;-66
2021/05/19 12:53:52;;;;;;;3.17;0.73;;;;;;;;;;5013545;28;20034;-65
2021/05/19 12:56:24;;;;;;;8.32;1.02;;;;;;;;;;5012849;28;20343;-66
2021/05/19 12:58:54;;;;;;;4.35;1.00;;;;;;;;;;5012945;28;20034;-65
2021/05/19 13:01:20;;;;;;;7.90;1.58;;;;;;;;;;5030597;28;20378;-66
2021/05/19 13:03:45;;;;;;;2.20;0.82;;;;;;;;;;5015703;28;20037;-66
2021/05/19 13:06:10;;;;;;;2.08;0.80;;;;;;;;;;5012826;28;20294;-65
2021/05/19 13:08:36;;;;;;;3.05;0.68;;;;;;;;;;5012853;28;20072;-66
2021/05/19 13:11:04;;;;;;;4.28;0.90;;;;;;;;;;5012366;28;20014;-64
2021/05/19 13:13:34;;;;;;;2.65;0.90;;;;;;;;;;5012881;28;20394;-65
2021/05/19 13:16:09;;;;;;;4.25;0.68;;;;;;;;;;5012568;28;20022;-66
2021/05/19 13:18:39;;;;;;;1.25;0.50;;;;;;;;;;5012853;28;20057;-65
2021/05/19 13:21:07;;;;;;;;;;;;;;;;;;5013079;28;20497;-66
2021/05/19 13:23:44;;;;;;;2.45;0.77;;;;;;;;;;5012603;28;20317;-66
2021/05/19 13:26:10;;;;;;;10.27;0.80;;;;;;;;;;4998056;28;20030;-66
2021/05/19 13:28:39;;;;;;;3.78;0.57;;;;;;;;;;5011898;28;20021;-66
2021/05/19 13:31:05;;;;;;;2.28;0.57;;;;;;;;;;5012068;28;20017;-65
2021/05/19 13:38:42;;;;;;;2.33;0.65;;;;;;;;;;5012719;28;20079;-66
2021/05/19 13:41:07;;;;;;;3.88;0.70;;;;;;;;;;5013031;28;20030;-65
2021/05/19 13:43:33;;;;;;;5.35;1.20;;;;;;;;;;5013107;28;20080;-66
2021/05/19 13:45:59;;;;;;;2.92;0.90;;;;;;;;;;5011469;28;20038;-65
2021/05/19 13:48:24;;;;;;;6.75;0.85;;;;;;;;;;5012727;28;20048;-66
2021/05/19 13:50:50;;;;;;;4.07;0.70;;;;;;;;;;5003956;28;20028;-65
2021/05/19 13:53:15;;;;;;;9.38;0.75;;;;;;;;;;5011602;28;20109;-65
2021/05/19 13:55:40;;;;;;;4.55;0.90;;;;;;;;;;5011892;28;20100;-62
2021/05/19 13:58:05;;;;;;;6.33;0.53;;;;;;;;;;5011718;28;20064;-64
2021/05/19 14:00:31;;;;;;;6.20;0.77;;;;;;;;;;5011434;28;20277;-65
2021/05/19 14:02:56;;;;;;;5.18;0.50;;;;;;;;;;5011804;28;20474;-65
2021/05/19 14:05:26;;;;;;;1.00;0.45;;;;;;;;;;5010912;28;20441;-64
2021/05/19 14:07:52;;;;;;;5.00;0.40;;;;;;;;;;5011386;28;20030;-64
2021/05/19 14:10:18;;;;;;;3.25;0.50;;;;;;;;;;5012076;28;20514;-64
2021/05/19 14:12:46;;;;;;;1.10;0.57;;;;;;;;;;5011519;28;20337;-65
2021/05/19 14:17:57;;;;;;;1.75;0.68;;;;;;;;;;5010953;28;20026;-65
2021/05/19 14:28:34;;;;;;;2.03;0.75;;;;;;;;;;5011030;28;21586;-64
2021/05/19 14:31:01;;;;;;;5.47;0.82;;;;;;;;;;5011365;28;20014;-65
2021/05/19 14:33:26;;;;;;;2.65;0.85;;;;;;;;;;5011480;28;20105;-65
2021/05/19 14:46:40;;;;;;;1.63;0.50;;;;;;;;;;5010454;28;20021;-65
2021/05/19 15:00:03;;;;;;;7.57;1.00;;;;;;;;;;5008277;28;20036;-65
2021/05/19 15:02:28;;;;;;;4.53;1.30;;;;;;;;;;5011244;28;20026;-65
2021/05/19 15:04:57;;;;;;;3.10;1.77;;;;;;;;;;5009501;28;20053;-64
2021/05/19 15:07:22;;;;;;;10.75;1.52;;;;;;;;;;5010809;28;20014;-64
2021/05/19 15:09:47;;;;;;;6.53;1.80;;;;;;;;;;5014659;28;20025;-66
2021/05/19 15:12:12;;;;;;;16.63;2.07;;;;;;;;;;5010957;28;20057;-65
2021/05/19 15:14:38;;;;;;;10.33;2.17;;;;;;;;;;5010929;28;20336;-65